NCAR-RAP Real-Time Weather Data

Output produced by METARs form (26 September 2018  02:57 UTC)
found at http://weather.rap.ucar.edu/surface/
 
Conditions at: KTYQ observed 26 September 2018  02:35 UTC
Temperature: 21.0°C (70°F)
Dewpoint: 21.0°C (70°F) [RH = 100%]
Pressure (altimeter): 29.93 inches Hg (1013.6 mb)
Winds: from the SW (220 degrees) at 8 MPH (7 knots; 3.6 m/s)
Visibility: 10 or more miles (16+ km)
Ceiling: 1400 feet AGL
Clouds: scattered clouds at 800 feet AGL
broken clouds at 1400 feet AGL
broken clouds at 2600 feet AGL
Present Weather: -DZ  (light drizzle)
KTYQ 260235Z AUTO 22007KT 10SM -DZ SCT008 BKN014 BKN026 21/21 A2993 RMK AO2 LTG DSNT SE AND W T02100210